Florence, IN

5:27 PM EDT on April 19, 2015 (GMT -0400)
Riveraire | | Change Station
CLOSE
Current Station
Personal Weather Station
Location: Vevay, IN
Elevation: 480 ft
Nearby Weather Stations

Elev 480 ft 38.73 °N, 85.09 °W | Updated 5 seconds ago

Overcast
Overcast
66.1 °F
Feels Like 66.1 °F
N
0.0
Wind Variable Wind from South
Gusts 2.0 mph

Today
High -- | Low -- °F
--% Chance of Precip.
Yesterday
High -- | Low -- °F
Precip. -- in
6:58 AM 8:20 PM
New Moon, 2% visible
Pressure 29.48 in
Visibility 7.0 miles
Clouds Mostly Cloudy 1000 ft
Mostly Cloudy 2200 ft
Overcast 3500 ft
Dew Point 65 °F
Humidity 97%
Rainfall 0.49 in
Snow Depth Not available.
UV 1 out of 12
Pollen 4.20 out of 12
Air Quality Not available.
Flu Activity Local Activity
METAR KCVG 192052Z 13015G20KT 7SM -RA BKN010 BKN022 OVC035 18/17 A2950 RMK AO2 SLP983 P0014 60024 T01780167 56052 $

More Conditions Fewer Conditions

Pressure 29.48 in
Visibility 7.0 miles
Clouds Mostly Cloudy 1000 ft
Mostly Cloudy 2200 ft
Overcast 3500 ft
Dew Point 65 °F
Humidity 97%
Rainfall 0.49 in
Snow Depth Not available.
UV 1 out of 12
Pollen 4.20 out of 12
Air Quality Not available.
Flu Activity Local Activity
METAR KCVG 192052Z 13015G20KT 7SM -RA BKN010 BKN022 OVC035 18/17 A2950 RMK AO2 SLP983 P0014 60024 T01780167 56052 $

More Conditions Fewer Conditions

10-Day Weather Forecast

Almanac

Astronomy

Apr. 19, 2015 Rise Set
Actual Time
Civil Twilight
Nautical Twilight
Astronomical Twilight
Moon
Length of Visible Light
Length of Day
Tomorrow will be .
, % of the Moon is Illuminated

Today's Extremes

State Highs State Lows

Community

WunderPhotos

Upload Photos

1,814,988 photos uploaded!

WunderBlogs® & News

Nearby

Air Quality

  Air Quality AQ Index Pollutant
Not available.

Snow Depth

Station Depth Elevation

Earthquake Activity

City Distance Mag. Time & Date
Minimum magnitude displayed is 2.5.

Coastal Water Temperatures

Place Temperature

Stations

Nearby Weather Stations

Station Location Temp. Windchill Dew Point Humidity Wind Precip. Elev Updated Type